HAZ2727 ZSHC-ZJQH
Flight info
| Callsign | HAZ2727 |
|---|---|
| Flight time | 2h 18m |
| Altitude | 34100 |
| Route | ELNEX5E ELNEX A599 PLT W19 NOMAR W18 NLG W23 ZUH R200 BIGRO G221 ANPIM ANPIM8ZA |
| Aircraft | A320/M-SDE3FGHIRWY/LB1 |
Departure
| Time | 2026-05-05 12:01 |
|---|---|
| Airport | Hangzhou Xiaoshan International Airport (ZSHC) |
Arrival
| Time | 2026-05-05 14:20 |
|---|---|
| Airport | Qionghai Bo'ao Airport (ZJQH) |
| Time | Latitude | Longitude | Altitude | Speed | Heading |
|---|---|---|---|---|---|
| 2026-05-05 11:26 | 30.24121 | 120.42803 | 32 ft | 0 kts | 234° |
| 2026-05-05 11:48 | 30.24127 | 120.42813 | 32 ft | 3 kts | 234° |
| 2026-05-05 11:49 | 30.24139 | 120.42832 | 32 ft | 3 kts | 237° |
| 2026-05-05 11:49 | 30.24147 | 120.42852 | 32 ft | 3 kts | 279° |
| 2026-05-05 11:49 | 30.24138 | 120.42871 | 29 ft | 3 kts | 323° |
| 2026-05-05 11:49 | 30.24120 | 120.42884 | 30 ft | 2 kts | 333° |
| 2026-05-05 11:50 | 30.24119 | 120.42885 | 32 ft | 0 kts | 333° |
| 2026-05-05 11:51 | 30.24132 | 120.42877 | 32 ft | 4 kts | 333° |
| 2026-05-05 11:52 | 30.24159 | 120.42861 | 32 ft | 4 kts | 333° |
| 2026-05-05 11:52 | 30.24180 | 120.42849 | 32 ft | 3 kts | 333° |
| 2026-05-05 11:52 | 30.24222 | 120.42824 | 32 ft | 8 kts | 333° |
| 2026-05-05 11:52 | 30.24258 | 120.42803 | 32 ft | 3 kts | 332° |
| 2026-05-05 11:53 | 30.24283 | 120.42776 | 32 ft | 6 kts | 289° |
| 2026-05-05 11:53 | 30.24267 | 120.42715 | 31 ft | 13 kts | 243° |
| 2026-05-05 11:53 | 30.24210 | 120.42587 | 32 ft | 20 kts | 242° |
| 2026-05-05 11:53 | 30.24198 | 120.42480 | 32 ft | 11 kts | 312° |
| 2026-05-05 11:54 | 30.24288 | 120.42422 | 32 ft | 18 kts | 332° |
| 2026-05-05 11:54 | 30.24299 | 120.42345 | 32 ft | 15 kts | 247° |
| 2026-05-05 11:54 | 30.24252 | 120.42239 | 32 ft | 14 kts | 243° |
| 2026-05-05 11:54 | 30.24201 | 120.42125 | 32 ft | 16 kts | 243° |
| 2026-05-05 11:55 | 30.24150 | 120.42010 | 32 ft | 16 kts | 243° |
| 2026-05-05 11:55 | 30.24103 | 120.41903 | 32 ft | 15 kts | 243° |
| 2026-05-05 11:55 | 30.24046 | 120.41773 | 32 ft | 19 kts | 243° |
| 2026-05-05 11:55 | 30.23982 | 120.41630 | 32 ft | 21 kts | 242° |
| 2026-05-05 11:56 | 30.23920 | 120.41489 | 32 ft | 19 kts | 243° |
| 2026-05-05 11:56 | 30.23864 | 120.41364 | 32 ft | 12 kts | 243° |
| 2026-05-05 11:56 | 30.23831 | 120.41288 | 30 ft | 10 kts | 243° |
| 2026-05-05 11:56 | 30.23796 | 120.41210 | 32 ft | 13 kts | 243° |
| 2026-05-05 11:57 | 30.23750 | 120.41104 | 32 ft | 15 kts | 243° |
| 2026-05-05 11:57 | 30.23706 | 120.41007 | 32 ft | 10 kts | 243° |
| 2026-05-05 11:57 | 30.23697 | 120.40985 | 32 ft | 0 kts | 243° |
| 2026-05-05 11:58 | 30.23684 | 120.40951 | 32 ft | 5 kts | 254° |
| 2026-05-05 11:58 | 30.23694 | 120.40923 | 33 ft | 3 kts | 307° |
| 2026-05-05 11:58 | 30.23720 | 120.40905 | 33 ft | 5 kts | 333° |
| 2026-05-05 11:58 | 30.23723 | 120.40903 | 33 ft | 0 kts | 333° |
| 2026-05-05 11:59 | 30.23727 | 120.40901 | 33 ft | 3 kts | 333° |
| 2026-05-05 11:59 | 30.23777 | 120.40872 | 33 ft | 12 kts | 334° |
| 2026-05-05 12:00 | 30.23835 | 120.40862 | 34 ft | 7 kts | 34° |
| 2026-05-05 12:00 | 30.23848 | 120.40893 | 34 ft | 0 kts | 63° |
| 2026-05-05 12:00 | 30.23849 | 120.40894 | 34 ft | 1 kts | 63° |
| 2026-05-05 12:00 | 30.23917 | 120.41048 | 34 ft | 56 kts | 63° |
| 2026-05-05 12:01 | 30.24199 | 120.41685 | 32 ft | 119 kts | 63° |
| 2026-05-05 12:01 | 30.24655 | 120.42716 | 33 ft | 167 kts | 63° |
| 2026-05-05 12:01 | 30.25207 | 120.43965 | 455 ft | 179 kts | 65° |
| 2026-05-05 12:01 | 30.25768 | 120.45240 | 1110 ft | 176 kts | 69° |
| 2026-05-05 12:02 | 30.26324 | 120.46503 | 1800 ft | 177 kts | 69° |
| 2026-05-05 12:02 | 30.26910 | 120.47836 | 2158 ft | 196 kts | 68° |
| 2026-05-05 12:02 | 30.27564 | 120.49324 | 2435 ft | 217 kts | 66° |
| 2026-05-05 12:02 | 30.28264 | 120.50899 | 2971 ft | 222 kts | 66° |
| 2026-05-05 12:03 | 30.29073 | 120.52426 | 3594 ft | 225 kts | 48° |
| 2026-05-05 12:03 | 30.30376 | 120.53424 | 4143 ft | 230 kts | 17° |
| 2026-05-05 12:03 | 30.31965 | 120.53526 | 4717 ft | 231 kts | 345° |
| 2026-05-05 12:03 | 30.33369 | 120.52698 | 5356 ft | 227 kts | 315° |
| 2026-05-05 12:04 | 30.34227 | 120.51212 | 6000 ft | 222 kts | 287° |
| 2026-05-05 12:04 | 30.34512 | 120.49471 | 6629 ft | 221 kts | 277° |
| 2026-05-05 12:04 | 30.34595 | 120.47691 | 7270 ft | 223 kts | 263° |
| 2026-05-05 12:04 | 30.34197 | 120.45927 | 7727 ft | 237 kts | 245° |
| 2026-05-05 12:05 | 30.33400 | 120.44133 | 7865 ft | 266 kts | 242° |
| 2026-05-05 12:05 | 30.32522 | 120.42179 | 7894 ft | 277 kts | 242° |
| 2026-05-05 12:05 | 30.31637 | 120.40198 | 7886 ft | 277 kts | 243° |
| 2026-05-05 12:05 | 30.30753 | 120.38217 | 7886 ft | 277 kts | 243° |
| 2026-05-05 12:06 | 30.29871 | 120.36238 | 7889 ft | 277 kts | 243° |
| 2026-05-05 12:06 | 30.28996 | 120.34266 | 7890 ft | 274 kts | 243° |
| 2026-05-05 12:06 | 30.28119 | 120.32291 | 8172 ft | 278 kts | 243° |
| 2026-05-05 12:06 | 30.27233 | 120.30296 | 9000 ft | 281 kts | 243° |
| 2026-05-05 12:07 | 30.26334 | 120.28265 | 9770 ft | 286 kts | 244° |
| 2026-05-05 12:07 | 30.25417 | 120.26192 | 10363 ft | 297 kts | 244° |
| 2026-05-05 12:07 | 30.24438 | 120.23982 | 10583 ft | 320 kts | 243° |
| 2026-05-05 12:07 | 30.23398 | 120.21640 | 10751 ft | 343 kts | 243° |
| 2026-05-05 12:08 | 30.22255 | 120.19072 | 10914 ft | 364 kts | 244° |
| 2026-05-05 12:08 | 30.21076 | 120.16433 | 11391 ft | 373 kts | 243° |
| 2026-05-05 12:08 | 30.19891 | 120.13787 | 12016 ft | 377 kts | 244° |
| 2026-05-05 12:08 | 30.18666 | 120.11046 | 12711 ft | 380 kts | 244° |
| 2026-05-05 12:09 | 30.17462 | 120.08355 | 13362 ft | 384 kts | 244° |
| 2026-05-05 12:09 | 30.16230 | 120.05602 | 13957 ft | 388 kts | 244° |
| 2026-05-05 12:09 | 30.14982 | 120.02820 | 14514 ft | 391 kts | 244° |
| 2026-05-05 12:09 | 30.13724 | 120.00022 | 15075 ft | 394 kts | 244° |
| 2026-05-05 12:10 | 30.12459 | 119.97198 | 15622 ft | 397 kts | 244° |
| 2026-05-05 12:10 | 30.11184 | 119.94354 | 16170 ft | 400 kts | 244° |
| 2026-05-05 12:10 | 30.09897 | 119.91490 | 16696 ft | 403 kts | 244° |
| 2026-05-05 12:10 | 30.08595 | 119.88609 | 17228 ft | 406 kts | 244° |
| 2026-05-05 12:11 | 30.07287 | 119.85710 | 17741 ft | 409 kts | 244° |
| 2026-05-05 12:11 | 30.05971 | 119.82785 | 18254 ft | 412 kts | 244° |
| 2026-05-05 12:11 | 30.04469 | 119.79954 | 18689 ft | 417 kts | 235° |
| 2026-05-05 12:11 | 30.02530 | 119.77450 | 19122 ft | 422 kts | 224° |
| 2026-05-05 12:12 | 30.00192 | 119.75379 | 19568 ft | 426 kts | 213° |
| 2026-05-05 12:12 | 29.97575 | 119.73739 | 19999 ft | 430 kts | 209° |
| 2026-05-05 12:12 | 29.94915 | 119.72147 | 20442 ft | 432 kts | 209° |
| 2026-05-05 12:12 | 29.92242 | 119.70542 | 20880 ft | 435 kts | 209° |
| 2026-05-05 12:13 | 29.89552 | 119.68923 | 21303 ft | 437 kts | 209° |
| 2026-05-05 12:13 | 29.86852 | 119.67294 | 21705 ft | 439 kts | 210° |
| 2026-05-05 12:13 | 29.84231 | 119.65483 | 22091 ft | 440 kts | 216° |
| 2026-05-05 12:13 | 29.81702 | 119.63490 | 22480 ft | 442 kts | 217° |
| 2026-05-05 12:14 | 29.79158 | 119.61489 | 22867 ft | 444 kts | 216° |
| 2026-05-05 12:14 | 29.76600 | 119.59481 | 23258 ft | 446 kts | 216° |
| 2026-05-05 12:14 | 29.74024 | 119.57463 | 23624 ft | 449 kts | 216° |
| 2026-05-05 12:14 | 29.71435 | 119.55440 | 23953 ft | 451 kts | 216° |
| 2026-05-05 12:15 | 29.68839 | 119.53417 | 24291 ft | 452 kts | 216° |
| 2026-05-05 12:15 | 29.66231 | 119.51387 | 24597 ft | 454 kts | 216° |
| 2026-05-05 12:15 | 29.63667 | 119.49269 | 24915 ft | 453 kts | 222° |
| 2026-05-05 12:15 | 29.61400 | 119.46772 | 25221 ft | 451 kts | 230° |
| 2026-05-05 12:16 | 29.59310 | 119.44084 | 25562 ft | 451 kts | 230° |
| 2026-05-05 12:16 | 29.57213 | 119.41399 | 25870 ft | 452 kts | 230° |
| 2026-05-05 12:16 | 29.55107 | 119.38715 | 26181 ft | 453 kts | 230° |
| 2026-05-05 12:16 | 29.52994 | 119.36032 | 26476 ft | 454 kts | 230° |
| 2026-05-05 12:17 | 29.50875 | 119.33344 | 26777 ft | 454 kts | 230° |
| 2026-05-05 12:17 | 29.48757 | 119.30652 | 27115 ft | 454 kts | 230° |
| 2026-05-05 12:17 | 29.46646 | 119.27966 | 27559 ft | 451 kts | 230° |
| 2026-05-05 12:17 | 29.44553 | 119.25300 | 28026 ft | 448 kts | 230° |
| 2026-05-05 12:18 | 29.42468 | 119.22649 | 28419 ft | 447 kts | 230° |
| 2026-05-05 12:18 | 29.40386 | 119.20008 | 28879 ft | 444 kts | 230° |
| 2026-05-05 12:18 | 29.38318 | 119.17389 | 29347 ft | 442 kts | 230° |
| 2026-05-05 12:18 | 29.36260 | 119.14786 | 29815 ft | 439 kts | 231° |
| 2026-05-05 12:19 | 29.34217 | 119.12199 | 30229 ft | 437 kts | 231° |
| 2026-05-05 12:19 | 29.32180 | 119.09622 | 30571 ft | 435 kts | 231° |
| 2026-05-05 12:19 | 29.30149 | 119.07057 | 30903 ft | 434 kts | 231° |
| 2026-05-05 12:19 | 29.28124 | 119.04503 | 31219 ft | 433 kts | 231° |
| 2026-05-05 12:20 | 29.26100 | 119.01953 | 31541 ft | 432 kts | 231° |
| 2026-05-05 12:20 | 29.24082 | 118.99409 | 31883 ft | 431 kts | 231° |
| 2026-05-05 12:20 | 29.22070 | 118.96869 | 32240 ft | 430 kts | 231° |
| 2026-05-05 12:20 | 29.20065 | 118.94339 | 32585 ft | 429 kts | 231° |
| 2026-05-05 12:21 | 29.18060 | 118.91813 | 32883 ft | 429 kts | 231° |
| 2026-05-05 12:21 | 29.16082 | 118.89323 | 33186 ft | 428 kts | 232° |
| 2026-05-05 12:21 | 29.14079 | 118.86800 | 33475 ft | 428 kts | 232° |
| 2026-05-05 12:21 | 29.12053 | 118.84246 | 33721 ft | 428 kts | 232° |
| 2026-05-05 12:22 | 29.10055 | 118.81733 | 34021 ft | 427 kts | 232° |
| 2026-05-05 12:22 | 29.08080 | 118.79253 | 34087 ft | 429 kts | 232° |
| 2026-05-05 12:22 | 29.04044 | 118.74194 | 34066 ft | 431 kts | 232° |
| 2026-05-05 12:23 | 29.00036 | 118.69186 | 34090 ft | 416 kts | 232° |
| 2026-05-05 12:23 | 28.98088 | 118.66758 | 34092 ft | 405 kts | 232° |
| 2026-05-05 12:23 | 28.96217 | 118.64422 | 34098 ft | 403 kts | 232° |
| 2026-05-05 12:24 | 28.92447 | 118.59696 | 34092 ft | 402 kts | 232° |
| 2026-05-05 12:24 | 28.88677 | 118.54974 | 34091 ft | 402 kts | 232° |
| 2026-05-05 12:25 | 28.84898 | 118.50261 | 34093 ft | 402 kts | 232° |
| 2026-05-05 12:25 | 28.81119 | 118.45557 | 34080 ft | 402 kts | 232° |
| 2026-05-05 12:26 | 28.77344 | 118.40858 | 34086 ft | 402 kts | 232° |
| 2026-05-05 12:26 | 28.73568 | 118.36168 | 34090 ft | 401 kts | 233° |
| 2026-05-05 12:27 | 28.69786 | 118.31479 | 34086 ft | 402 kts | 232° |
| 2026-05-05 12:27 | 28.65993 | 118.26781 | 34082 ft | 403 kts | 232° |
| 2026-05-05 12:28 | 28.62189 | 118.22078 | 34070 ft | 404 kts | 232° |
| 2026-05-05 12:28 | 28.58388 | 118.17374 | 34085 ft | 404 kts | 232° |
| 2026-05-05 12:29 | 28.54613 | 118.12708 | 34089 ft | 403 kts | 232° |
| 2026-05-05 12:29 | 28.50812 | 118.08019 | 34094 ft | 403 kts | 232° |
| 2026-05-05 12:30 | 28.47005 | 118.03334 | 34082 ft | 403 kts | 233° |
| 2026-05-05 12:30 | 28.43198 | 117.98644 | 34069 ft | 404 kts | 233° |
| 2026-05-05 12:31 | 28.39362 | 117.93970 | 34075 ft | 405 kts | 232° |
| 2026-05-05 12:31 | 28.35435 | 117.89373 | 34096 ft | 406 kts | 231° |
| 2026-05-05 12:32 | 28.31487 | 117.84789 | 34099 ft | 406 kts | 231° |
| 2026-05-05 12:32 | 28.27548 | 117.80196 | 34093 ft | 406 kts | 231° |
| 2026-05-05 12:33 | 28.23613 | 117.75592 | 34110 ft | 406 kts | 232° |
| 2026-05-05 12:33 | 28.19682 | 117.70985 | 34104 ft | 406 kts | 232° |
| 2026-05-05 12:34 | 28.15747 | 117.66385 | 34121 ft | 407 kts | 231° |
| 2026-05-05 12:34 | 28.11807 | 117.61789 | 34121 ft | 407 kts | 231° |
| 2026-05-05 12:35 | 28.07893 | 117.57229 | 34108 ft | 406 kts | 231° |
| 2026-05-05 12:35 | 28.03946 | 117.52623 | 34114 ft | 412 kts | 232° |
| 2026-05-05 12:36 | 27.99922 | 117.47895 | 34130 ft | 422 kts | 231° |
| 2026-05-05 12:36 | 27.95781 | 117.43038 | 34124 ft | 434 kts | 232° |
| 2026-05-05 12:37 | 27.91559 | 117.38117 | 34136 ft | 437 kts | 232° |
| 2026-05-05 12:37 | 27.87310 | 117.33177 | 34122 ft | 438 kts | 232° |
| 2026-05-05 12:38 | 27.83068 | 117.28235 | 34135 ft | 438 kts | 232° |
| 2026-05-05 12:38 | 27.78829 | 117.23295 | 34099 ft | 437 kts | 232° |
| 2026-05-05 12:39 | 27.74599 | 117.18376 | 34133 ft | 437 kts | 231° |
| 2026-05-05 12:39 | 27.71080 | 117.14293 | 34138 ft | 436 kts | 232° |
| 2026-05-05 12:40 | 27.66844 | 117.09383 | 34119 ft | 437 kts | 232° |
| 2026-05-05 12:40 | 27.62607 | 117.04473 | 34112 ft | 437 kts | 232° |
| 2026-05-05 12:41 | 27.58362 | 116.99564 | 34093 ft | 437 kts | 232° |
| 2026-05-05 12:41 | 27.54126 | 116.94673 | 34100 ft | 435 kts | 232° |
| 2026-05-05 12:42 | 27.49910 | 116.89789 | 34114 ft | 434 kts | 232° |
| 2026-05-05 12:42 | 27.45729 | 116.84888 | 34099 ft | 434 kts | 233° |
| 2026-05-05 12:43 | 27.41537 | 116.79977 | 34100 ft | 435 kts | 233° |
| 2026-05-05 12:43 | 27.37334 | 116.75067 | 34068 ft | 436 kts | 233° |
| 2026-05-05 12:44 | 27.33130 | 116.70172 | 34100 ft | 435 kts | 233° |
| 2026-05-05 12:44 | 27.28928 | 116.65288 | 34105 ft | 434 kts | 233° |
| 2026-05-05 12:45 | 27.24733 | 116.60405 | 34108 ft | 434 kts | 233° |
| 2026-05-05 12:45 | 27.20537 | 116.55528 | 34091 ft | 434 kts | 233° |
| 2026-05-05 12:46 | 27.16405 | 116.50591 | 34091 ft | 434 kts | 234° |
| 2026-05-05 12:46 | 27.12325 | 116.45596 | 34101 ft | 434 kts | 234° |
| 2026-05-05 12:47 | 27.08248 | 116.40607 | 34107 ft | 434 kts | 234° |
| 2026-05-05 12:47 | 27.04144 | 116.35641 | 34113 ft | 434 kts | 234° |
| 2026-05-05 12:48 | 27.00033 | 116.30685 | 34114 ft | 434 kts | 234° |
| 2026-05-05 12:48 | 26.95927 | 116.25725 | 34104 ft | 434 kts | 234° |
| 2026-05-05 12:49 | 26.91820 | 116.20765 | 34106 ft | 435 kts | 234° |
| 2026-05-05 12:49 | 26.87700 | 116.15808 | 34113 ft | 435 kts | 234° |
| 2026-05-05 12:50 | 26.83570 | 116.10854 | 34119 ft | 435 kts | 234° |
| 2026-05-05 12:50 | 26.79472 | 116.05938 | 34125 ft | 435 kts | 234° |
| 2026-05-05 12:51 | 26.75345 | 116.00989 | 34121 ft | 435 kts | 234° |
| 2026-05-05 12:51 | 26.71219 | 115.96041 | 34095 ft | 434 kts | 234° |
| 2026-05-05 12:52 | 26.67122 | 115.91079 | 34106 ft | 434 kts | 235° |
| 2026-05-05 12:52 | 26.63030 | 115.86109 | 34107 ft | 434 kts | 235° |
| 2026-05-05 12:53 | 26.58931 | 115.81146 | 34109 ft | 435 kts | 235° |
| 2026-05-05 12:53 | 26.54826 | 115.76189 | 34110 ft | 435 kts | 235° |
| 2026-05-05 12:54 | 26.48652 | 115.68754 | 34094 ft | 435 kts | 234° |
| 2026-05-05 12:55 | 26.44541 | 115.63805 | 34110 ft | 434 kts | 235° |
| 2026-05-05 12:55 | 26.40426 | 115.58859 | 34108 ft | 435 kts | 235° |
| 2026-05-05 12:56 | 26.36304 | 115.53905 | 34113 ft | 436 kts | 235° |
| 2026-05-05 12:56 | 26.32176 | 115.48952 | 34114 ft | 436 kts | 235° |
| 2026-05-05 12:57 | 26.28036 | 115.43996 | 34120 ft | 437 kts | 234° |
| 2026-05-05 12:57 | 26.23902 | 115.39043 | 34113 ft | 436 kts | 234° |
| 2026-05-05 12:58 | 26.19775 | 115.34102 | 34128 ft | 435 kts | 234° |
| 2026-05-05 12:58 | 26.15645 | 115.29168 | 34115 ft | 436 kts | 234° |
| 2026-05-05 12:59 | 26.11502 | 115.24229 | 34111 ft | 437 kts | 234° |
| 2026-05-05 12:59 | 26.07359 | 115.19288 | 34116 ft | 437 kts | 234° |
| 2026-05-05 13:00 | 26.01156 | 115.11896 | 34115 ft | 438 kts | 234° |
| 2026-05-05 13:01 | 25.92823 | 115.02009 | 34130 ft | 438 kts | 234° |
| 2026-05-05 13:01 | 25.88651 | 114.97062 | 34111 ft | 439 kts | 234° |
| 2026-05-05 13:02 | 25.84464 | 114.92110 | 34109 ft | 440 kts | 234° |
| 2026-05-05 13:02 | 25.79485 | 114.87952 | 34092 ft | 461 kts | 214° |
| 2026-05-05 13:03 | 25.76477 | 114.86619 | 34110 ft | 472 kts | 204° |
| 2026-05-05 13:03 | 25.73264 | 114.85761 | 34113 ft | 476 kts | 201° |
| 2026-05-05 13:03 | 25.66790 | 114.84146 | 34105 ft | 478 kts | 200° |
| 2026-05-05 13:04 | 25.60294 | 114.82533 | 34103 ft | 479 kts | 200° |
| 2026-05-05 13:04 | 25.53792 | 114.80913 | 34084 ft | 479 kts | 200° |
| 2026-05-05 13:05 | 25.47290 | 114.79294 | 34106 ft | 478 kts | 200° |
| 2026-05-05 13:05 | 25.40799 | 114.77672 | 34117 ft | 478 kts | 200° |
| 2026-05-05 13:06 | 25.34315 | 114.76054 | 34121 ft | 478 kts | 200° |
| 2026-05-05 13:06 | 25.27832 | 114.74448 | 34089 ft | 477 kts | 200° |
| 2026-05-05 13:07 | 25.21357 | 114.72843 | 34111 ft | 476 kts | 200° |
| 2026-05-05 13:07 | 25.14904 | 114.71235 | 34119 ft | 475 kts | 200° |
| 2026-05-05 13:08 | 25.08506 | 114.69642 | 34127 ft | 475 kts | 200° |
| 2026-05-05 13:08 | 25.02058 | 114.68048 | 34133 ft | 475 kts | 200° |
| 2026-05-05 13:09 | 24.95610 | 114.66460 | 34120 ft | 475 kts | 200° |
| 2026-05-05 13:09 | 24.89167 | 114.64866 | 34135 ft | 474 kts | 200° |
| 2026-05-05 13:10 | 24.82734 | 114.63277 | 34133 ft | 474 kts | 200° |
| 2026-05-05 13:10 | 24.76297 | 114.61695 | 34131 ft | 474 kts | 200° |
| 2026-05-05 13:11 | 24.69973 | 114.59831 | 34108 ft | 464 kts | 209° |
| 2026-05-05 13:11 | 24.64344 | 114.56567 | 34118 ft | 456 kts | 217° |
| 2026-05-05 13:12 | 24.58852 | 114.53089 | 34123 ft | 456 kts | 217° |
| 2026-05-05 13:12 | 24.53353 | 114.49618 | 34114 ft | 455 kts | 217° |
| 2026-05-05 13:13 | 24.47855 | 114.46152 | 34129 ft | 456 kts | 217° |
| 2026-05-05 13:13 | 24.42354 | 114.42690 | 34115 ft | 456 kts | 217° |
| 2026-05-05 13:14 | 24.36846 | 114.39240 | 34129 ft | 456 kts | 217° |
| 2026-05-05 13:14 | 24.31331 | 114.35794 | 34113 ft | 457 kts | 217° |
| 2026-05-05 13:15 | 24.25813 | 114.32341 | 34113 ft | 457 kts | 216° |
| 2026-05-05 13:15 | 24.20293 | 114.28886 | 34099 ft | 457 kts | 217° |
| 2026-05-05 13:16 | 24.14773 | 114.25426 | 34104 ft | 457 kts | 217° |
| 2026-05-05 13:16 | 24.09253 | 114.21967 | 34110 ft | 456 kts | 217° |
| 2026-05-05 13:17 | 24.03731 | 114.18514 | 34119 ft | 457 kts | 217° |
| 2026-05-05 13:17 | 23.98202 | 114.15066 | 34126 ft | 458 kts | 217° |
| 2026-05-05 13:18 | 23.92666 | 114.11617 | 34099 ft | 458 kts | 217° |
| 2026-05-05 13:18 | 23.87126 | 114.08171 | 34104 ft | 458 kts | 217° |
| 2026-05-05 13:19 | 23.81576 | 114.04726 | 34106 ft | 459 kts | 216° |
| 2026-05-05 13:19 | 23.76023 | 114.01277 | 34104 ft | 460 kts | 217° |
| 2026-05-05 13:20 | 23.70498 | 113.97847 | 34116 ft | 460 kts | 217° |
| 2026-05-05 13:20 | 23.64892 | 113.94376 | 34085 ft | 460 kts | 216° |
| 2026-05-05 13:21 | 23.59366 | 113.90954 | 34096 ft | 460 kts | 216° |
| 2026-05-05 13:21 | 23.53791 | 113.87498 | 34091 ft | 462 kts | 216° |
| 2026-05-05 13:22 | 23.47800 | 113.84736 | 34087 ft | 477 kts | 202° |
| 2026-05-05 13:22 | 23.41385 | 113.82821 | 34084 ft | 479 kts | 202° |
| 2026-05-05 13:23 | 23.34961 | 113.80883 | 34079 ft | 479 kts | 202° |
| 2026-05-05 13:23 | 23.28527 | 113.78939 | 34089 ft | 480 kts | 202° |
| 2026-05-05 13:24 | 23.22088 | 113.77003 | 34094 ft | 480 kts | 202° |
| 2026-05-05 13:24 | 23.15641 | 113.75065 | 34099 ft | 481 kts | 202° |
| 2026-05-05 13:25 | 23.09189 | 113.73129 | 34084 ft | 481 kts | 202° |
| 2026-05-05 13:25 | 23.02731 | 113.71199 | 34094 ft | 482 kts | 202° |
| 2026-05-05 13:26 | 22.97363 | 113.69590 | 34102 ft | 482 kts | 202° |
| 2026-05-05 13:26 | 22.90899 | 113.67653 | 34109 ft | 482 kts | 202° |
| 2026-05-05 13:27 | 22.84431 | 113.65718 | 34099 ft | 482 kts | 202° |
| 2026-05-05 13:27 | 22.77971 | 113.63773 | 34105 ft | 482 kts | 202° |
| 2026-05-05 13:28 | 22.71509 | 113.61834 | 34106 ft | 482 kts | 202° |
| 2026-05-05 13:28 | 22.65055 | 113.59896 | 34113 ft | 481 kts | 202° |
| 2026-05-05 13:29 | 22.58594 | 113.57969 | 34117 ft | 481 kts | 202° |
| 2026-05-05 13:29 | 22.52138 | 113.56039 | 34092 ft | 481 kts | 202° |
| 2026-05-05 13:30 | 22.45711 | 113.54030 | 34097 ft | 480 kts | 203° |
| 2026-05-05 13:30 | 22.39308 | 113.51964 | 34104 ft | 480 kts | 203° |
| 2026-05-05 13:31 | 22.32900 | 113.49911 | 34107 ft | 480 kts | 202° |
| 2026-05-05 13:31 | 22.26714 | 113.47394 | 34079 ft | 468 kts | 216° |
| 2026-05-05 13:32 | 22.21848 | 113.43005 | 34091 ft | 450 kts | 236° |
| 2026-05-05 13:32 | 22.18787 | 113.37263 | 34092 ft | 438 kts | 252° |
| 2026-05-05 13:33 | 22.16529 | 113.31248 | 34104 ft | 419 kts | 252° |
| 2026-05-05 13:33 | 22.14346 | 113.25541 | 34105 ft | 407 kts | 252° |
| 2026-05-05 13:34 | 22.12136 | 113.19931 | 34105 ft | 407 kts | 250° |
| 2026-05-05 13:34 | 22.09803 | 113.14375 | 34104 ft | 407 kts | 250° |
| 2026-05-05 13:35 | 22.07454 | 113.08825 | 34104 ft | 407 kts | 250° |
| 2026-05-05 13:35 | 22.05116 | 113.03252 | 34103 ft | 408 kts | 250° |
| 2026-05-05 13:36 | 22.02805 | 112.97668 | 34084 ft | 408 kts | 251° |
| 2026-05-05 13:36 | 22.00616 | 112.92034 | 34086 ft | 407 kts | 252° |
| 2026-05-05 13:37 | 21.98461 | 112.86388 | 34090 ft | 408 kts | 252° |
| 2026-05-05 13:37 | 21.96281 | 112.80751 | 34095 ft | 408 kts | 251° |
| 2026-05-05 13:38 | 21.94029 | 112.75139 | 34089 ft | 408 kts | 251° |
| 2026-05-05 13:38 | 21.91745 | 112.69537 | 34085 ft | 409 kts | 251° |
| 2026-05-05 13:39 | 21.89462 | 112.63923 | 34085 ft | 409 kts | 251° |
| 2026-05-05 13:39 | 21.87190 | 112.58302 | 34089 ft | 410 kts | 251° |
| 2026-05-05 13:40 | 21.84932 | 112.52715 | 34089 ft | 410 kts | 251° |
| 2026-05-05 13:40 | 21.82698 | 112.47071 | 34088 ft | 410 kts | 251° |
| 2026-05-05 13:41 | 21.80475 | 112.41427 | 34067 ft | 410 kts | 251° |
| 2026-05-05 13:41 | 21.78237 | 112.35781 | 34078 ft | 411 kts | 251° |
| 2026-05-05 13:42 | 21.75985 | 112.30125 | 34081 ft | 412 kts | 251° |
| 2026-05-05 13:42 | 21.73727 | 112.24465 | 34085 ft | 412 kts | 251° |
| 2026-05-05 13:43 | 21.71465 | 112.18808 | 34084 ft | 412 kts | 251° |
| 2026-05-05 13:43 | 21.69209 | 112.13150 | 34084 ft | 412 kts | 251° |
| 2026-05-05 13:44 | 21.66949 | 112.07492 | 34072 ft | 412 kts | 251° |
| 2026-05-05 13:44 | 21.64681 | 112.01831 | 34076 ft | 413 kts | 251° |
| 2026-05-05 13:45 | 21.62410 | 111.96165 | 34085 ft | 413 kts | 251° |
| 2026-05-05 13:45 | 21.60135 | 111.90493 | 34083 ft | 413 kts | 251° |
| 2026-05-05 13:46 | 21.57848 | 111.84821 | 34071 ft | 415 kts | 248° |
| 2026-05-05 13:46 | 21.54603 | 111.79623 | 34084 ft | 427 kts | 234° |
| 2026-05-05 13:47 | 21.50681 | 111.74699 | 34097 ft | 438 kts | 234° |
| 2026-05-05 13:47 | 21.46705 | 111.69715 | 34089 ft | 440 kts | 234° |
| 2026-05-05 13:48 | 21.42729 | 111.64712 | 34091 ft | 441 kts | 234° |
| 2026-05-05 13:48 | 21.38750 | 111.59712 | 34083 ft | 440 kts | 234° |
| 2026-05-05 13:49 | 21.34769 | 111.54719 | 34084 ft | 440 kts | 234° |
| 2026-05-05 13:49 | 21.30792 | 111.49735 | 34084 ft | 440 kts | 234° |
| 2026-05-05 13:50 | 21.26816 | 111.44751 | 34085 ft | 439 kts | 234° |
| 2026-05-05 13:50 | 21.22841 | 111.39778 | 34088 ft | 439 kts | 234° |
| 2026-05-05 13:51 | 21.18870 | 111.34811 | 34087 ft | 439 kts | 234° |
| 2026-05-05 13:51 | 21.14899 | 111.29850 | 34083 ft | 439 kts | 234° |
| 2026-05-05 13:52 | 21.10927 | 111.24887 | 34083 ft | 439 kts | 234° |
| 2026-05-05 13:52 | 21.06954 | 111.19926 | 34068 ft | 439 kts | 234° |
| 2026-05-05 13:53 | 21.02982 | 111.14973 | 34079 ft | 438 kts | 234° |
| 2026-05-05 13:53 | 20.99009 | 111.10029 | 34078 ft | 438 kts | 233° |
| 2026-05-05 13:54 | 20.95024 | 111.05086 | 34073 ft | 439 kts | 233° |
| 2026-05-05 13:54 | 20.91050 | 111.00134 | 34069 ft | 439 kts | 234° |
| 2026-05-05 13:55 | 20.87116 | 110.95183 | 34055 ft | 441 kts | 234° |
| 2026-05-05 13:55 | 20.83137 | 110.90187 | 34050 ft | 442 kts | 234° |
| 2026-05-05 13:56 | 20.79135 | 110.85188 | 34052 ft | 443 kts | 233° |
| 2026-05-05 13:56 | 20.75132 | 110.80188 | 34052 ft | 443 kts | 234° |
| 2026-05-05 13:57 | 20.71125 | 110.75181 | 34053 ft | 443 kts | 233° |
| 2026-05-05 13:57 | 20.67110 | 110.70173 | 34055 ft | 444 kts | 233° |
| 2026-05-05 13:58 | 20.63094 | 110.65168 | 34042 ft | 445 kts | 233° |
| 2026-05-05 13:58 | 20.61074 | 110.62653 | 33605 ft | 446 kts | 233° |
| 2026-05-05 13:58 | 20.59058 | 110.60142 | 33101 ft | 445 kts | 233° |
| 2026-05-05 13:59 | 20.55025 | 110.55125 | 32117 ft | 445 kts | 233° |
| 2026-05-05 13:59 | 20.53007 | 110.52619 | 31625 ft | 445 kts | 233° |
| 2026-05-05 14:00 | 20.48528 | 110.48066 | 30695 ft | 450 kts | 219° |
| 2026-05-05 14:00 | 20.46814 | 110.46819 | 30392 ft | 450 kts | 218° |
| 2026-05-05 14:00 | 20.43357 | 110.44309 | 29749 ft | 449 kts | 218° |
| 2026-05-05 14:00 | 20.40774 | 110.42426 | 29220 ft | 450 kts | 218° |
| 2026-05-05 14:01 | 20.38186 | 110.40535 | 28702 ft | 452 kts | 218° |
| 2026-05-05 14:01 | 20.35588 | 110.38639 | 28193 ft | 454 kts | 218° |
| 2026-05-05 14:01 | 20.32979 | 110.36734 | 27696 ft | 455 kts | 218° |
| 2026-05-05 14:01 | 20.30359 | 110.34827 | 27197 ft | 457 kts | 218° |
| 2026-05-05 14:02 | 20.27759 | 110.32936 | 26717 ft | 459 kts | 218° |
| 2026-05-05 14:02 | 20.25116 | 110.31013 | 26244 ft | 461 kts | 218° |
| 2026-05-05 14:02 | 20.22417 | 110.29053 | 25756 ft | 466 kts | 217° |
| 2026-05-05 14:02 | 20.19766 | 110.27130 | 25303 ft | 469 kts | 217° |
| 2026-05-05 14:03 | 20.17065 | 110.25170 | 24848 ft | 471 kts | 217° |
| 2026-05-05 14:03 | 20.14349 | 110.23201 | 24402 ft | 473 kts | 217° |
| 2026-05-05 14:03 | 20.11624 | 110.21225 | 23964 ft | 474 kts | 217° |
| 2026-05-05 14:03 | 20.08902 | 110.19253 | 23528 ft | 473 kts | 217° |
| 2026-05-05 14:04 | 20.06190 | 110.17290 | 23020 ft | 470 kts | 217° |
| 2026-05-05 14:04 | 20.03497 | 110.15344 | 22512 ft | 466 kts | 217° |
| 2026-05-05 14:04 | 20.00744 | 110.13531 | 22013 ft | 465 kts | 210° |
| 2026-05-05 14:04 | 19.97822 | 110.12067 | 21518 ft | 463 kts | 207° |
| 2026-05-05 14:05 | 19.94884 | 110.10635 | 21030 ft | 465 kts | 207° |
| 2026-05-05 14:05 | 19.91942 | 110.09208 | 20559 ft | 464 kts | 207° |
| 2026-05-05 14:05 | 19.89010 | 110.07788 | 20093 ft | 461 kts | 207° |
| 2026-05-05 14:05 | 19.86102 | 110.06380 | 19626 ft | 458 kts | 207° |
| 2026-05-05 14:06 | 19.83216 | 110.04983 | 19175 ft | 454 kts | 207° |
| 2026-05-05 14:06 | 19.80354 | 110.03598 | 18730 ft | 451 kts | 206° |
| 2026-05-05 14:06 | 19.77513 | 110.02220 | 18313 ft | 448 kts | 206° |
| 2026-05-05 14:06 | 19.74691 | 110.00848 | 17833 ft | 444 kts | 206° |
| 2026-05-05 14:07 | 19.71889 | 109.99488 | 17348 ft | 441 kts | 206° |
| 2026-05-05 14:07 | 19.69110 | 109.98140 | 16876 ft | 437 kts | 206° |
| 2026-05-05 14:07 | 19.66353 | 109.96802 | 16414 ft | 434 kts | 206° |
| 2026-05-05 14:07 | 19.63617 | 109.95472 | 15946 ft | 431 kts | 206° |
| 2026-05-05 14:08 | 19.60896 | 109.94154 | 15503 ft | 428 kts | 206° |
| 2026-05-05 14:08 | 19.58196 | 109.92849 | 15058 ft | 425 kts | 206° |
| 2026-05-05 14:08 | 19.55512 | 109.91552 | 14617 ft | 422 kts | 206° |
| 2026-05-05 14:08 | 19.52850 | 109.90263 | 14197 ft | 418 kts | 206° |
| 2026-05-05 14:09 | 19.50240 | 109.89001 | 13810 ft | 407 kts | 206° |
| 2026-05-05 14:09 | 19.47696 | 109.87772 | 13383 ft | 397 kts | 206° |
| 2026-05-05 14:09 | 19.46046 | 109.86975 | 13107 ft | 392 kts | 205° |
| 2026-05-05 14:09 | 19.42426 | 109.86041 | 12539 ft | 410 kts | 182° |
| 2026-05-05 14:10 | 19.40564 | 109.86257 | 12261 ft | 405 kts | 168° |
| 2026-05-05 14:10 | 19.38013 | 109.87413 | 11849 ft | 398 kts | 147° |
| 2026-05-05 14:10 | 19.35494 | 109.90199 | 11301 ft | 393 kts | 121° |
| 2026-05-05 14:10 | 19.34404 | 109.92843 | 10907 ft | 392 kts | 111° |
| 2026-05-05 14:11 | 19.33450 | 109.95532 | 10511 ft | 387 kts | 110° |
| 2026-05-05 14:11 | 19.32835 | 109.97283 | 10266 ft | 380 kts | 110° |
| 2026-05-05 14:11 | 19.31927 | 109.99870 | 9903 ft | 370 kts | 110° |
| 2026-05-05 14:11 | 19.31039 | 110.02393 | 9510 ft | 361 kts | 110° |
| 2026-05-05 14:12 | 19.30179 | 110.04858 | 9105 ft | 353 kts | 110° |
| 2026-05-05 14:12 | 19.29339 | 110.07272 | 8713 ft | 346 kts | 110° |
| 2026-05-05 14:12 | 19.28516 | 110.09639 | 8315 ft | 340 kts | 110° |
| 2026-05-05 14:12 | 19.27708 | 110.11965 | 7924 ft | 334 kts | 110° |
| 2026-05-05 14:13 | 19.26912 | 110.14250 | 7545 ft | 328 kts | 110° |
| 2026-05-05 14:13 | 19.26124 | 110.16503 | 7164 ft | 324 kts | 110° |
| 2026-05-05 14:13 | 19.25346 | 110.18719 | 6796 ft | 319 kts | 110° |
| 2026-05-05 14:13 | 19.24579 | 110.20901 | 6423 ft | 314 kts | 110° |
| 2026-05-05 14:14 | 19.23825 | 110.23055 | 6028 ft | 310 kts | 111° |
| 2026-05-05 14:14 | 19.23085 | 110.25173 | 5613 ft | 301 kts | 110° |
| 2026-05-05 14:14 | 19.22575 | 110.27236 | 5335 ft | 280 kts | 90° |
| 2026-05-05 14:14 | 19.23063 | 110.29131 | 5071 ft | 262 kts | 55° |
| 2026-05-05 14:15 | 19.24415 | 110.30283 | 4805 ft | 246 kts | 18° |
| 2026-05-05 14:15 | 19.26035 | 110.30725 | 4544 ft | 239 kts | 17° |
| 2026-05-05 14:15 | 19.27542 | 110.31436 | 4272 ft | 236 kts | 33° |
| 2026-05-05 14:15 | 19.28778 | 110.32522 | 3974 ft | 227 kts | 47° |
| 2026-05-05 14:16 | 19.29564 | 110.33915 | 3629 ft | 220 kts | 78° |
| 2026-05-05 14:16 | 19.29435 | 110.35494 | 3167 ft | 217 kts | 116° |
| 2026-05-05 14:16 | 19.28481 | 110.36656 | 2903 ft | 207 kts | 147° |
| 2026-05-05 14:16 | 19.27251 | 110.37394 | 2657 ft | 200 kts | 150° |
| 2026-05-05 14:17 | 19.26046 | 110.38111 | 2414 ft | 196 kts | 149° |
| 2026-05-05 14:17 | 19.24892 | 110.38804 | 2141 ft | 184 kts | 149° |
| 2026-05-05 14:17 | 19.23817 | 110.39450 | 1919 ft | 170 kts | 149° |
| 2026-05-05 14:17 | 19.22827 | 110.40047 | 1702 ft | 156 kts | 149° |
| 2026-05-05 14:18 | 19.21925 | 110.40590 | 1495 ft | 144 kts | 149° |
| 2026-05-05 14:18 | 19.21080 | 110.41099 | 1320 ft | 140 kts | 149° |
| 2026-05-05 14:18 | 19.20234 | 110.41609 | 1139 ft | 139 kts | 149° |
| 2026-05-05 14:18 | 19.19396 | 110.42114 | 969 ft | 139 kts | 149° |
| 2026-05-05 14:19 | 19.18553 | 110.42623 | 788 ft | 140 kts | 149° |
| 2026-05-05 14:19 | 19.17715 | 110.43136 | 605 ft | 139 kts | 149° |
| 2026-05-05 14:19 | 19.16875 | 110.43647 | 398 ft | 139 kts | 150° |
| 2026-05-05 14:19 | 19.16032 | 110.44148 | 221 ft | 139 kts | 150° |
| 2026-05-05 14:20 | 19.15193 | 110.44646 | 34 ft | 137 kts | 149° |
| 2026-05-05 14:20 | 19.14456 | 110.45090 | 25 ft | 101 kts | 150° |
| 2026-05-05 14:20 | 19.14020 | 110.45354 | 25 ft | 23 kts | 150° |
| 2026-05-05 14:20 | 19.14022 | 110.45423 | 24 ft | 9 kts | 55° |
| 2026-05-05 14:21 | 19.14051 | 110.45474 | 24 ft | 7 kts | 60° |
| 2026-05-05 14:21 | 19.14071 | 110.45512 | 24 ft | 5 kts | 60° |
| 2026-05-05 14:21 | 19.14087 | 110.45541 | 25 ft | 4 kts | 59° |
| 2026-05-05 14:21 | 19.14105 | 110.45572 | 25 ft | 11 kts | 59° |
| 2026-05-05 14:22 | 19.14129 | 110.45655 | 25 ft | 9 kts | 83° |
| 2026-05-05 14:22 | 19.14150 | 110.45697 | 25 ft | 1 kts | 60° |
| 2026-05-05 14:22 | 19.14156 | 110.45709 | 25 ft | 2 kts | 60° |
| 2026-05-05 14:22 | 19.14159 | 110.45714 | 25 ft | 0 kts | 59° |